createdAt,value
2017-11-15T00:02:20.768Z,72.13
2017-11-15T00:04:59.311Z,53.97
2017-11-15T00:07:31.464Z,67.50
2017-11-15T00:10:02.262Z,58.17
2017-11-15T00:12:43.843Z,79.43
2017-11-15T00:15:17.389Z,58.50
2017-11-15T00:17:49.353Z,68.90
2017-11-15T00:20:20.024Z,66.53
2017-11-15T00:22:50.805Z,78.17
2017-11-15T00:25:21.984Z,78.53
2017-11-15T00:27:52.381Z,72.10
2017-11-15T00:30:23.020Z,73.27
2017-11-15T00:32:53.906Z,77.03
2017-11-15T00:35:25.637Z,74.40
2017-11-15T00:37:56.341Z,72.60
2017-11-15T00:40:27.294Z,90.97
2017-11-15T00:42:58.973Z,77.53
2017-11-15T00:45:31.202Z,68.90
2017-11-15T00:48:02.043Z,82.03
2017-11-15T00:50:32.765Z,87.80
2017-11-15T00:53:02.967Z,88.53
2017-11-15T00:55:33.983Z,90.37
2017-11-15T00:58:06.513Z,84.03
2017-11-15T01:00:39.102Z,73.33
2017-11-15T01:03:09.548Z,61.20
2017-11-15T01:05:40.191Z,76.97
2017-11-15T01:08:10.980Z,85.40
2017-11-15T01:10:41.273Z,74.33
2017-11-15T01:13:13.060Z,92.50
2017-11-15T01:15:50.346Z,82.03
2017-11-15T01:18:21.123Z,82.87
2017-11-15T01:20:52.338Z,80.97
2017-11-15T01:23:23.572Z,90.20
2017-11-15T01:25:54.100Z,95.23
2017-11-15T01:28:24.863Z,69.43
2017-11-15T01:30:58.824Z,96.50
2017-11-15T01:33:29.776Z,68.53
2017-11-15T01:36:00.280Z,72.37
2017-11-15T01:38:31.085Z,80.37
2017-11-15T01:41:01.455Z,76.13
2017-11-15T01:43:32.501Z,79.47
2017-11-15T01:46:02.823Z,71.43
2017-11-15T01:48:34.088Z,96.07
2017-11-15T01:51:04.469Z,65.37
2017-11-15T01:53:35.267Z,72.27
2017-11-15T01:56:07.085Z,69.83
2017-11-15T01:58:37.808Z,74.87
2017-11-15T02:01:16.333Z,64.17
2017-11-15T02:03:47.693Z,67.90
2017-11-15T02:06:19.613Z,55.73
2017-11-15T02:08:52.141Z,65.87
2017-11-15T02:11:23.076Z,60.10
2017-11-15T02:13:54.640Z,56.40
2017-11-15T02:30:35.709Z,60.73
2017-11-15T02:33:06.748Z,51.10
2017-11-15T02:35:38.593Z,46.07
2017-11-15T02:38:11.245Z,47.80
2017-11-15T02:40:43.711Z,43.73
2017-11-15T02:43:21.008Z,51.37
2017-11-15T02:45:52.629Z,43.87
2017-11-15T02:48:23.784Z,39.10
2017-11-15T02:51:00.541Z,42.43
2017-11-15T02:53:32.588Z,43.53
2017-11-15T02:56:05.587Z,47.70
2017-11-15T02:58:37.198Z,50.47
2017-11-15T03:01:08.064Z,48.77
2017-11-15T03:03:42.033Z,51.57
2017-11-15T03:06:13.729Z,56.13
2017-11-15T03:08:44.218Z,57.80
2017-11-15T03:11:14.868Z,49.57
2017-11-15T03:13:48.973Z,54.50
2017-11-15T03:16:23.832Z,42.27
2017-11-15T03:19:03.976Z,55.30
2017-11-15T03:21:38.331Z,51.20
2017-11-15T03:24:11.184Z,57.87
2017-11-15T03:26:42.804Z,55.83
2017-11-15T03:29:13.450Z,49.57
2017-11-15T03:31:46.049Z,59.50
2017-11-15T03:34:23.300Z,57.77
2017-11-15T03:36:53.692Z,62.97
2017-11-15T03:39:23.843Z,60.80
2017-11-15T03:41:58.806Z,48.00
2017-11-15T03:44:29.489Z,61.77
2017-11-15T03:47:00.127Z,63.80
2017-11-15T03:49:32.134Z,69.90
2017-11-15T03:52:03.869Z,59.07
2017-11-15T03:54:36.274Z,66.23
2017-11-15T03:57:10.688Z,81.17
2017-11-15T03:59:43.842Z,66.50
2017-11-15T04:02:15.092Z,67.20
2017-11-15T04:04:46.566Z,74.63
2017-11-15T04:07:22.601Z,73.13
2017-11-15T04:10:03.164Z,86.93
2017-11-15T04:12:33.802Z,71.70
2017-11-15T04:15:10.737Z,70.70
2017-11-15T04:17:42.605Z,72.67
2017-11-15T04:20:16.818Z,70.00
2017-11-15T04:22:52.004Z,78.20
2017-11-15T04:25:22.722Z,77.43
2017-11-15T04:27:53.049Z,79.00
2017-11-15T04:33:19.594Z,73.77
2017-11-15T04:35:50.429Z,64.80
2017-11-15T04:38:21.189Z,72.10
2017-11-15T04:40:53.954Z,65.20
2017-11-15T04:43:28.371Z,68.43
2017-11-15T04:46:02.174Z,70.30
2017-11-15T04:48:35.756Z,65.87
2017-11-15T04:51:09.437Z,65.70
2017-11-15T04:53:44.966Z,74.80
2017-11-15T04:56:17.437Z,69.57
2017-11-15T04:58:50.719Z,68.77
2017-11-15T05:01:21.863Z,78.43
2017-11-15T05:03:52.500Z,72.77
2017-11-15T05:06:24.481Z,83.33
2017-11-15T05:08:55.345Z,80.50
2017-11-15T05:11:26.602Z,70.23
2017-11-15T05:13:58.542Z,62.80
2017-11-15T05:16:28.897Z,65.17
2017-11-15T05:18:59.828Z,75.17
2017-11-15T05:21:30.806Z,63.27
2017-11-15T05:24:02.169Z,68.87
2017-11-15T05:26:40.542Z,61.60
2017-11-15T05:29:32.164Z,67.57
2017-11-15T05:32:02.681Z,61.23
2017-11-15T05:34:33.849Z,68.23
2017-11-15T05:39:53.430Z,64.40
2017-11-15T05:42:24.152Z,79.23
2017-11-15T05:45:00.642Z,70.03
2017-11-15T05:47:31.203Z,62.10
2017-11-15T05:50:02.641Z,72.83
2017-11-15T05:52:36.453Z,72.90
2017-11-15T05:55:09.672Z,63.43
2017-11-15T05:57:41.269Z,82.53
2017-11-15T06:00:15.857Z,73.53
2017-11-15T06:02:46.400Z,76.10
2017-11-15T06:05:17.381Z,82.20
2017-11-15T06:07:49.904Z,74.90
2017-11-15T06:10:23.568Z,66.30
2017-11-15T06:12:54.582Z,71.43
2017-11-15T06:15:32.515Z,77.20
2017-11-15T06:18:02.846Z,64.73
2017-11-15T06:20:34.330Z,70.53
2017-11-15T06:23:06.750Z,95.50
2017-11-15T06:25:37.569Z,85.37
2017-11-15T06:30:51.316Z,94.60
2017-11-15T06:33:24.725Z,100.67
2017-11-15T06:36:43.992Z,77.40
2017-11-15T06:39:25.776Z,90.03
2017-11-15T06:41:58.048Z,77.00
2017-11-15T06:44:31.665Z,84.93
2017-11-15T06:47:03.555Z,90.30
2017-11-15T06:49:49.567Z,76.70
2017-11-15T06:52:22.222Z,88.20
2017-11-15T06:54:57.724Z,92.37
2017-11-15T06:57:29.306Z,84.80
2017-11-15T07:00:00.317Z,82.20
2017-11-15T07:02:32.690Z,91.97
2017-11-15T07:05:08.858Z,83.73
2017-11-15T07:07:41.635Z,90.37
2017-11-15T07:10:14.078Z,92.43
2017-11-15T07:12:45.101Z,96.10
2017-11-15T07:15:21.418Z,101.50
2017-11-15T07:17:52.869Z,91.20
2017-11-15T07:20:25.611Z,75.67
2017-11-15T07:23:02.204Z,88.17
2017-11-15T07:25:34.829Z,95.33
2017-11-15T07:28:11.100Z,75.70
2017-11-15T07:30:42.063Z,83.57
2017-11-15T07:33:14.965Z,75.30
2017-11-15T07:35:46.840Z,86.77
2017-11-15T07:38:20.837Z,79.80
2017-11-15T07:40:52.401Z,77.40
2017-11-15T07:43:31.526Z,83.80
2017-11-15T07:46:07.080Z,78.13
2017-11-15T07:48:45.519Z,81.00
2017-11-15T07:51:17.161Z,87.77
2017-11-15T07:53:48.084Z,77.80
2017-11-15T07:56:19.624Z,88.57
2017-11-15T07:58:50.223Z,85.37
2017-11-15T08:01:22.029Z,81.97
2017-11-15T08:03:53.912Z,67.73
2017-11-15T08:06:24.618Z,80.40
2017-11-15T08:08:56.537Z,89.47
2017-11-15T08:11:28.287Z,79.63
2017-11-15T08:14:01.863Z,75.43
2017-11-15T08:16:33.274Z,72.70
2017-11-15T08:19:03.798Z,68.93
2017-11-15T08:21:35.626Z,67.93
2017-11-15T08:24:06.454Z,70.37
2017-11-15T08:26:36.991Z,71.80
2017-11-15T08:29:07.789Z,75.17
2017-11-15T08:31:54.605Z,68.47
2017-11-15T08:34:26.556Z,72.07
2017-11-15T08:39:45.632Z,75.37
2017-11-15T08:42:18.605Z,68.73
2017-11-15T08:44:55.752Z,64.47
2017-11-15T08:47:31.610Z,76.40
2017-11-15T08:50:06.181Z,75.23
2017-11-15T08:52:37.343Z,66.03
2017-11-15T08:55:08.367Z,61.50
2017-11-15T08:57:47.885Z,76.23
2017-11-15T09:00:19.815Z,64.10
2017-11-15T09:02:50.598Z,68.73
2017-11-15T09:05:30.847Z,60.07
2017-11-15T09:10:44.519Z,66.57
2017-11-15T09:13:17.804Z,65.60
2017-11-15T09:15:48.133Z,63.63
2017-11-15T09:18:20.388Z,64.53
2017-11-15T09:20:50.975Z,69.53
2017-11-15T09:23:21.634Z,67.17
2017-11-15T09:25:58.175Z,69.53
2017-11-15T09:28:31.082Z,63.83
2017-11-15T09:31:02.005Z,66.10
2017-11-15T09:33:43.386Z,65.30
2017-11-15T09:36:18.648Z,65.33
2017-11-15T09:38:50.810Z,62.60
2017-11-15T09:41:25.989Z,69.87
2017-11-15T09:43:56.638Z,58.10
2017-11-15T09:46:30.203Z,75.53
2017-11-15T09:49:03.814Z,73.37
2017-11-15T09:51:41.781Z,49.37
2017-11-15T09:54:12.970Z,77.50
2017-11-15T09:56:44.926Z,73.03
2017-11-15T09:59:15.447Z,78.03
2017-11-15T10:01:47.330Z,69.93
2017-11-15T10:04:20.366Z,69.87
2017-11-15T10:06:52.325Z,70.23
2017-11-15T10:09:25.351Z,69.83
2017-11-15T10:11:59.627Z,67.23
2017-11-15T10:14:32.313Z,69.33
2017-11-15T10:17:10.855Z,70.37
2017-11-15T10:19:43.247Z,72.67
2017-11-15T10:22:21.002Z,75.27
2017-11-15T10:24:54.039Z,78.53
2017-11-15T10:27:26.678Z,62.70
2017-11-15T10:30:13.752Z,71.47
2017-11-15T10:33:11.375Z,79.30
2017-11-15T10:36:01.972Z,75.07
2017-11-15T10:38:33.913Z,67.67
2017-11-15T10:41:07.448Z,71.33
2017-11-15T10:43:43.953Z,67.07
2017-11-15T10:46:16.572Z,88.90
2017-11-15T10:48:50.265Z,74.70
2017-11-15T10:51:33.685Z,62.77
2017-11-15T10:54:10.929Z,71.87
2017-11-15T10:56:45.880Z,70.50
2017-11-15T10:59:25.681Z,70.37
2017-11-15T11:02:05.828Z,53.83
2017-11-15T11:04:44.805Z,71.63
2017-11-15T11:07:28.098Z,68.57
2017-11-15T11:10:20.482Z,62.50
2017-11-15T11:13:24.124Z,72.90
2017-11-15T11:16:11.394Z,70.30
2017-11-15T11:19:00.679Z,70.80
2017-11-15T11:21:36.639Z,71.87
2017-11-15T11:24:10.080Z,58.07
2017-11-15T11:26:41.947Z,62.33
2017-11-15T11:29:34.441Z,64.80
2017-11-15T11:32:07.879Z,69.73
2017-11-15T11:34:38.857Z,65.43
2017-11-15T11:37:29.113Z,71.57
2017-11-15T11:40:12.356Z,67.60
2017-11-15T11:45:36.467Z,76.20
2017-11-15T11:48:09.274Z,69.47
2017-11-15T11:50:50.294Z,64.53
2017-11-15T11:53:22.449Z,55.63
2017-11-15T11:55:56.171Z,74.20
2017-11-15T11:58:28.365Z,62.00
2017-11-15T12:01:01.427Z,62.17
2017-11-15T12:03:33.598Z,62.57
2017-11-15T12:06:05.774Z,77.43
2017-11-15T12:08:45.793Z,66.50
2017-11-15T12:11:21.007Z,59.73
2017-11-15T12:14:07.110Z,76.67
2017-11-15T12:16:44.497Z,70.33
2017-11-15T12:19:19.230Z,66.53
2017-11-15T12:21:50.105Z,60.90
2017-11-15T12:24:22.803Z,62.47
2017-11-15T12:26:54.661Z,72.20
2017-11-15T12:29:27.870Z,68.37
2017-11-15T12:32:02.312Z,56.77
2017-11-15T12:34:40.316Z,66.27
2017-11-15T12:37:12.516Z,60.93
2017-11-15T12:39:51.074Z,64.67
2017-11-15T12:42:22.403Z,56.60
2017-11-15T12:44:57.323Z,63.27
2017-11-15T12:47:31.187Z,53.90
2017-11-15T12:50:03.800Z,61.93
2017-11-15T12:55:18.866Z,65.57
2017-11-15T12:57:54.652Z,59.50
2017-11-15T13:00:26.559Z,72.67
2017-11-15T13:03:07.979Z,64.77
2017-11-15T13:05:42.103Z,63.47
2017-11-15T13:08:12.690Z,67.47
2017-11-15T13:10:43.034Z,68.77
2017-11-15T13:13:14.640Z,58.73
2017-11-15T13:15:48.224Z,67.20
2017-11-15T13:18:28.450Z,67.87
2017-11-15T13:20:59.265Z,62.70
2017-11-15T13:23:34.905Z,72.10
2017-11-15T13:26:07.531Z,65.40
2017-11-15T13:28:43.131Z,73.97
2017-11-15T13:31:13.786Z,56.93
2017-11-15T13:33:46.655Z,59.93
2017-11-15T13:36:17.369Z,59.07
2017-11-15T13:38:48.709Z,65.67
2017-11-15T13:41:26.871Z,63.10
2017-11-15T13:44:00.102Z,68.27
2017-11-15T13:46:30.962Z,58.63
2017-11-15T13:49:02.156Z,57.13
2017-11-15T13:51:49.071Z,57.33
2017-11-15T13:54:19.598Z,61.57
2017-11-15T13:56:51.896Z,56.90
2017-11-15T13:59:23.625Z,54.10
2017-11-15T14:01:54.506Z,70.90
2017-11-15T14:04:26.641Z,56.73
2017-11-15T14:06:57.219Z,56.00
2017-11-15T14:09:28.194Z,68.83
2017-11-15T14:11:59.716Z,52.97
2017-11-15T14:14:30.397Z,50.40
2017-11-15T14:17:01.324Z,57.40
2017-11-15T14:19:31.818Z,55.87
2017-11-15T14:22:02.545Z,57.87
2017-11-15T14:24:33.191Z,61.30
2017-11-15T14:27:03.709Z,55.23
2017-11-15T14:29:34.166Z,54.43
2017-11-15T14:32:05.188Z,61.33
2017-11-15T14:34:35.473Z,50.93
2017-11-15T14:37:06.002Z,57.23
2017-11-15T14:39:36.814Z,57.03
2017-11-15T14:42:07.358Z,61.20
2017-11-15T14:44:38.694Z,65.17
2017-11-15T14:47:19.349Z,64.93
2017-11-15T14:49:49.781Z,57.27
2017-11-15T14:52:21.023Z,61.17
2017-11-15T14:54:52.201Z,53.20
2017-11-15T14:57:22.697Z,62.23
2017-11-15T14:59:55.714Z,54.47
2017-11-15T15:02:26.330Z,46.27
2017-11-15T15:04:56.637Z,54.50
2017-11-15T15:07:28.137Z,56.60
2017-11-15T15:10:00.142Z,56.33
2017-11-15T15:12:35.234Z,52.93
2017-11-15T15:15:05.780Z,52.57
2017-11-15T15:17:36.284Z,46.67
2017-11-15T15:20:06.687Z,50.33
2017-11-15T15:22:37.011Z,43.47
2017-11-15T15:25:08.275Z,51.30
2017-11-15T15:27:39.686Z,49.00
2017-11-15T15:30:10.415Z,45.47
2017-11-15T15:32:41.824Z,35.57
2017-11-15T15:35:12.197Z,44.87
2017-11-15T15:37:42.805Z,41.17
2017-11-15T15:40:13.712Z,42.73
2017-11-15T15:42:43.950Z,47.57
2017-11-15T15:45:29.935Z,48.87
2017-11-15T15:48:03.958Z,38.40
2017-11-15T15:50:34.824Z,46.33
2017-11-15T15:53:06.205Z,43.20
2017-11-15T15:55:36.947Z,45.83
2017-11-15T15:58:08.466Z,39.03
2017-11-15T16:00:40.275Z,37.33
2017-11-15T16:03:12.117Z,42.20
2017-11-15T16:05:44.489Z,34.60
2017-11-15T16:08:16.408Z,43.60
2017-11-15T16:10:49.292Z,43.87
2017-11-15T16:13:21.052Z,39.73
2017-11-15T16:15:51.878Z,35.37
2017-11-15T16:18:22.255Z,32.20
2017-11-15T16:20:52.683Z,42.07
2017-11-15T16:23:23.394Z,35.47
2017-11-15T16:25:54.573Z,31.93
2017-11-15T16:28:26.737Z,36.50
2017-11-15T16:30:57.341Z,39.37
2017-11-15T16:33:27.953Z,34.97
2017-11-15T16:35:58.780Z,31.70
2017-11-15T16:38:29.242Z,36.17
2017-11-15T16:41:00.473Z,42.50
2017-11-15T16:43:30.574Z,35.57
2017-11-15T16:46:11.597Z,35.67
2017-11-15T16:48:43.329Z,23.63
2017-11-15T16:51:14.952Z,36.40
2017-11-15T16:53:51.880Z,32.90
2017-11-15T16:56:23.193Z,31.90
2017-11-15T16:58:53.978Z,34.27
2017-11-15T17:01:24.391Z,36.90
2017-11-15T17:03:54.696Z,35.93
2017-11-15T17:06:25.136Z,27.63
2017-11-15T17:08:56.927Z,30.90
2017-11-15T17:11:27.619Z,28.93
2017-11-15T17:13:58.056Z,35.77
2017-11-15T17:16:29.679Z,28.70
2017-11-15T17:19:01.025Z,26.07
2017-11-15T17:21:33.359Z,32.93
2017-11-15T17:24:04.138Z,26.63
2017-11-15T17:26:34.899Z,24.00
2017-11-15T17:29:06.314Z,22.50
2017-11-15T17:31:37.154Z,32.27
2017-11-15T17:34:12.908Z,26.87
2017-11-15T17:36:43.268Z,31.03
2017-11-15T17:39:13.538Z,25.90
2017-11-15T17:41:43.886Z,26.40
2017-11-15T17:44:14.045Z,24.53
2017-11-15T17:46:45.042Z,22.63
2017-11-15T17:49:22.314Z,19.37
2017-11-15T17:51:52.831Z,23.17
2017-11-15T17:54:23.047Z,26.13
2017-11-15T17:56:53.965Z,21.70
2017-11-15T17:59:25.632Z,26.13
2017-11-15T18:01:56.404Z,24.63
2017-11-15T18:04:31.091Z,27.00
2017-11-15T18:07:04.599Z,23.53
2017-11-15T18:09:34.944Z,27.93
2017-11-15T18:12:05.858Z,22.90
2017-11-15T18:14:36.886Z,29.10
2017-11-15T18:17:07.283Z,22.77
2017-11-15T18:19:37.680Z,28.67
2017-11-15T18:22:07.764Z,27.13
2017-11-15T18:24:39.074Z,23.67
2017-11-15T18:27:09.784Z,35.77
2017-11-15T18:29:40.136Z,28.17
2017-11-15T18:32:11.061Z,29.40
2017-11-15T18:34:41.270Z,28.40
2017-11-15T18:37:12.202Z,27.40
2017-11-15T18:39:44.191Z,24.47
2017-11-15T18:42:15.005Z,34.07
2017-11-15T18:44:48.704Z,36.60
2017-11-15T18:47:19.324Z,28.90
2017-11-15T18:49:57.758Z,35.17
2017-11-15T18:52:33.267Z,33.93
2017-11-15T18:55:03.826Z,37.90
2017-11-15T18:57:34.205Z,49.27
2017-11-15T19:00:05.136Z,34.70
2017-11-15T19:02:44.217Z,41.03
2017-11-15T19:05:14.552Z,33.30
2017-11-15T19:07:46.761Z,42.10
2017-11-15T19:10:39.717Z,37.60
2017-11-15T19:13:13.409Z,40.43
2017-11-15T19:15:47.712Z,39.93
2017-11-15T19:18:23.233Z,37.57
2017-11-15T19:20:53.725Z,37.20
2017-11-15T19:23:24.463Z,45.00
2017-11-15T19:25:56.131Z,37.20
2017-11-15T19:28:28.992Z,38.93
2017-11-15T19:31:01.946Z,41.10
2017-11-15T19:33:32.493Z,32.37
2017-11-15T19:36:03.791Z,38.60
2017-11-15T19:38:36.007Z,31.73
2017-11-15T19:41:12.089Z,36.73
2017-11-15T19:43:42.482Z,40.87
2017-11-15T19:46:14.088Z,35.43
2017-11-15T19:48:44.967Z,37.17
2017-11-15T19:51:35.820Z,35.13
2017-11-15T19:54:06.952Z,34.93
2017-11-15T19:56:37.161Z,40.33
2017-11-15T19:59:07.485Z,40.77
2017-11-15T20:01:38.612Z,29.10
2017-11-15T20:04:09.990Z,23.63
2017-11-15T20:06:41.824Z,36.20
2017-11-15T20:09:13.494Z,34.10
2017-11-15T20:11:43.734Z,38.50
2017-11-15T20:14:15.972Z,35.27
2017-11-15T20:16:47.532Z,28.90
2017-11-15T20:19:19.184Z,33.13
2017-11-15T20:22:01.674Z,33.07
2017-11-15T20:24:34.019Z,24.33
2017-11-15T20:27:04.281Z,36.33
2017-11-15T20:29:35.795Z,41.00
2017-11-15T20:32:06.129Z,36.90
2017-11-15T20:34:37.398Z,36.77
2017-11-15T20:37:12.639Z,35.80
2017-11-15T20:39:44.071Z,33.83
2017-11-15T20:42:15.082Z,37.47
2017-11-15T20:44:46.820Z,42.40
2017-11-15T20:47:18.014Z,36.93
2017-11-15T20:49:49.140Z,36.93
2017-11-15T20:52:21.682Z,27.27
2017-11-15T20:54:55.739Z,37.47
2017-11-15T20:57:26.303Z,37.53
2017-11-15T20:59:56.886Z,31.10
2017-11-15T21:02:26.959Z,35.63
2017-11-15T21:04:57.133Z,33.17
2017-11-15T21:07:27.425Z,30.80
2017-11-15T21:09:57.608Z,38.03
2017-11-15T21:12:30.068Z,28.13
2017-11-15T21:15:00.201Z,29.90
2017-11-15T21:17:30.391Z,52.57
2017-11-15T21:20:00.552Z,29.90
2017-11-15T21:22:31.382Z,29.03
2017-11-15T21:25:01.525Z,30.00
2017-11-15T21:27:31.762Z,30.37
2017-11-15T21:30:02.956Z,22.87
2017-11-15T21:32:33.115Z,32.93
2017-11-15T21:35:03.223Z,24.60
2017-11-15T21:37:33.713Z,17.97
2017-11-15T21:40:03.855Z,35.23
2017-11-15T21:42:34.124Z,32.93
2017-11-15T21:45:04.414Z,25.10
2017-11-15T21:47:35.627Z,24.23
2017-11-15T21:50:06.817Z,34.93
2017-11-15T21:52:37.745Z,33.00
2017-11-15T21:55:11.967Z,29.63
2017-11-15T21:57:43.345Z,28.67
2017-11-15T22:00:13.539Z,26.20
2017-11-15T22:02:44.606Z,34.00
2017-11-15T22:05:14.989Z,31.60
2017-11-15T22:07:45.625Z,29.57
2017-11-15T22:10:15.814Z,30.53
2017-11-15T22:12:45.978Z,40.50
2017-11-15T22:15:16.107Z,35.70
2017-11-15T22:17:47.314Z,38.77
2017-11-15T22:20:23.439Z,35.57
2017-11-15T22:22:54.138Z,39.27
2017-11-15T22:25:25.207Z,35.27
2017-11-15T22:27:56.474Z,37.20
2017-11-15T22:30:27.883Z,27.07
2017-11-15T22:32:58.317Z,33.97
2017-11-15T22:35:33.867Z,40.20
2017-11-15T22:38:09.327Z,39.80
2017-11-15T22:40:39.522Z,37.70
2017-11-15T22:43:09.701Z,38.23
2017-11-15T22:45:40.042Z,41.07
2017-11-15T22:48:10.090Z,34.97
2017-11-15T22:50:41.438Z,30.30
2017-11-15T22:53:12.404Z,42.27
2017-11-15T22:55:43.765Z,31.23
2017-11-15T22:58:20.062Z,27.77
2017-11-15T23:00:51.254Z,41.63
2017-11-15T23:03:22.614Z,37.80
2017-11-15T23:05:52.897Z,29.93
2017-11-15T23:08:22.937Z,40.57
2017-11-15T23:10:55.190Z,33.70
2017-11-15T23:13:25.418Z,33.37
2017-11-15T23:15:55.563Z,35.30
2017-11-15T23:18:25.976Z,33.50
2017-11-15T23:20:56.001Z,36.87
2017-11-15T23:23:26.266Z,36.10
2017-11-15T23:25:58.395Z,33.17
2017-11-15T23:28:29.277Z,38.60
2017-11-15T23:31:04.633Z,37.60
2017-11-15T23:33:34.958Z,49.93
2017-11-15T23:36:06.034Z,42.30
2017-11-15T23:38:36.649Z,43.30
2017-11-15T23:41:08.419Z,47.13
2017-11-15T23:43:39.340Z,40.87
2017-11-15T23:46:09.558Z,56.00
2017-11-15T23:48:40.065Z,61.67
2017-11-15T23:51:12.465Z,54.60
2017-11-15T23:53:49.461Z,47.20
2017-11-15T23:56:19.849Z,45.70
2017-11-15T23:58:49.987Z,53.87
